createdAt,value
2023-02-23T00:00:15.151Z,15.70
2023-02-23T00:03:19.104Z,20.47
2023-02-23T00:06:26.448Z,26.57
2023-02-23T00:09:35.730Z,23.60
2023-02-23T00:12:39.620Z,23.60
2023-02-23T00:15:43.432Z,19.50
2023-02-23T00:18:50.876Z,18.07
2023-02-23T00:21:58.940Z,19.07
2023-02-23T00:25:03.381Z,21.50
2023-02-23T00:28:07.584Z,19.17
2023-02-23T00:31:12.325Z,17.60
2023-02-23T00:34:21.181Z,17.90
2023-02-23T00:37:26.586Z,15.07
2023-02-23T00:40:30.686Z,15.17
2023-02-23T00:43:37.367Z,17.63
2023-02-23T00:46:41.994Z,16.23
2023-02-23T00:49:46.212Z,17.10
2023-02-23T00:52:51.536Z,16.53
2023-02-23T00:55:56.454Z,16.70
2023-02-23T00:59:00.286Z,15.77
2023-02-23T01:02:04.267Z,14.93
2023-02-23T01:05:08.942Z,15.70
2023-02-23T01:08:15.534Z,16.83
2023-02-23T01:11:23.461Z,14.17
2023-02-23T01:14:27.271Z,14.77
2023-02-23T01:17:49.678Z,15.83
2023-02-23T01:20:53.688Z,16.10
2023-02-23T01:23:59.430Z,15.93
2023-02-23T01:27:03.239Z,16.23
2023-02-23T01:30:10.392Z,15.73
2023-02-23T01:33:14.189Z,16.80
2023-02-23T01:36:18.855Z,18.50
2023-02-23T01:39:24.170Z,18.10
2023-02-23T01:42:28.061Z,18.77
2023-02-23T01:45:43.760Z,18.07
2023-02-23T01:48:48.547Z,18.43
2023-02-23T01:52:01.219Z,20.60
2023-02-23T01:55:13.070Z,19.07
2023-02-23T01:58:21.397Z,20.43
2023-02-23T02:01:25.555Z,20.03
2023-02-23T02:04:33.805Z,20.87
2023-02-23T02:07:39.865Z,19.43
2023-02-23T02:10:46.508Z,19.33
2023-02-23T02:13:50.599Z,21.83
2023-02-23T02:17:13.891Z,20.00
2023-02-23T02:20:52.466Z,19.63
2023-02-23T02:24:53.625Z,18.20
2023-02-23T02:28:51.367Z,22.20
2023-02-23T02:32:47.509Z,21.87
2023-02-23T02:36:34.300Z,24.20
2023-02-23T02:39:53.753Z,25.37
2023-02-23T02:43:10.421Z,25.90
2023-02-23T02:46:22.866Z,26.30
2023-02-23T02:49:32.824Z,27.13
2023-02-23T02:52:42.399Z,28.73
2023-02-23T02:55:50.338Z,27.80
2023-02-23T02:58:55.909Z,27.33
2023-02-23T03:02:17.668Z,28.07
2023-02-23T03:05:42.858Z,27.03
2023-02-23T03:09:19.710Z,27.23
2023-02-23T03:12:58.412Z,29.03
2023-02-23T03:16:39.724Z,27.87
2023-02-23T03:20:12.535Z,27.87
2023-02-23T03:23:42.138Z,26.53
2023-02-23T03:27:15.446Z,28.50
2023-02-23T03:30:48.319Z,26.77
2023-02-23T03:34:21.655Z,27.83
2023-02-23T03:37:49.749Z,27.83
2023-02-23T03:41:13.856Z,26.43
2023-02-23T03:44:44.491Z,27.70
2023-02-23T03:48:09.483Z,27.00
2023-02-23T03:51:33.629Z,28.27
2023-02-23T03:55:00.905Z,28.07
2023-02-23T03:58:26.955Z,25.57
2023-02-23T04:01:49.886Z,25.90
2023-02-23T04:05:19.984Z,27.87
2023-02-23T04:08:47.880Z,27.53
2023-02-23T04:12:16.361Z,27.80
2023-02-23T04:15:27.873Z,27.80
2023-02-23T04:18:34.885Z,26.70
2023-02-23T04:21:40.130Z,28.50
2023-02-23T04:24:43.947Z,26.07
2023-02-23T04:27:47.720Z,26.63
2023-02-23T04:30:53.078Z,28.40
2023-02-23T04:33:57.105Z,28.00
2023-02-23T04:37:02.318Z,27.13
2023-02-23T04:40:07.807Z,28.73
2023-02-23T04:43:13.736Z,28.70
2023-02-23T04:46:17.516Z,29.17
2023-02-23T04:49:21.376Z,28.70
2023-02-23T04:52:26.573Z,28.53
2023-02-23T04:55:30.504Z,30.00
2023-02-23T04:58:34.215Z,29.30
2023-02-23T05:01:38.207Z,30.20
2023-02-23T05:04:42.054Z,28.50
2023-02-23T05:07:50.280Z,30.17
2023-02-23T05:10:54.043Z,28.70
2023-02-23T05:13:57.848Z,30.20
2023-02-23T05:17:01.681Z,30.20
2023-02-23T05:20:06.321Z,30.40
2023-02-23T05:23:11.699Z,29.27
2023-02-23T05:26:16.044Z,28.70
2023-02-23T05:29:20.133Z,28.67
2023-02-23T05:32:24.144Z,28.17
2023-02-23T05:35:27.972Z,30.53
2023-02-23T05:38:33.263Z,29.90
2023-02-23T05:41:37.168Z,28.90
2023-02-23T05:44:41.106Z,30.00
2023-02-23T05:47:44.897Z,29.97
2023-02-23T05:50:48.782Z,31.37
2023-02-23T05:53:54.001Z,29.73
2023-02-23T05:56:59.002Z,31.77
2023-02-23T06:00:05.719Z,30.93
2023-02-23T06:03:09.611Z,28.87
2023-02-23T06:06:14.345Z,30.83
2023-02-23T06:09:19.672Z,31.30
2023-02-23T06:12:24.004Z,31.77
2023-02-23T06:15:29.891Z,30.27
2023-02-23T06:18:34.010Z,33.37
2023-02-23T06:21:37.939Z,31.53
2023-02-23T06:24:43.236Z,32.77
2023-02-23T06:27:47.143Z,32.80
2023-02-23T06:30:53.495Z,32.43
2023-02-23T06:33:57.416Z,32.50
2023-02-23T06:37:01.177Z,33.80
2023-02-23T06:40:08.513Z,32.83
2023-02-23T06:43:12.321Z,33.57
2023-02-23T06:46:16.191Z,33.63
2023-02-23T06:49:19.945Z,34.87
2023-02-23T06:52:25.156Z,36.07
2023-02-23T06:55:30.426Z,35.27
2023-02-23T06:58:34.543Z,35.10
2023-02-23T07:01:38.347Z,33.63
2023-02-23T07:04:42.547Z,33.30
2023-02-23T07:07:46.632Z,34.00
2023-02-23T07:10:51.836Z,35.47
2023-02-23T07:13:59.441Z,33.00
2023-02-23T07:17:04.372Z,33.47
2023-02-23T07:20:09.210Z,34.43
2023-02-23T07:23:13.023Z,34.30
2023-02-23T07:26:18.512Z,35.70
2023-02-23T07:29:24.122Z,34.57
2023-02-23T07:32:28.091Z,36.17
2023-02-23T07:35:32.003Z,36.00
2023-02-23T07:38:36.709Z,36.67
2023-02-23T07:41:41.974Z,35.23
2023-02-23T07:44:46.796Z,35.53
2023-02-23T07:47:50.701Z,38.53
2023-02-23T07:50:55.128Z,36.93
2023-02-23T07:54:05.951Z,37.57
2023-02-23T07:57:13.080Z,38.70
2023-02-23T08:00:17.970Z,37.53
2023-02-23T08:03:21.835Z,36.43
2023-02-23T08:06:25.709Z,39.17
2023-02-23T08:09:30.844Z,38.17
2023-02-23T08:12:36.265Z,37.83
2023-02-23T08:15:40.219Z,37.60
2023-02-23T08:18:44.195Z,37.60
2023-02-23T08:21:47.947Z,38.67
2023-02-23T08:24:51.795Z,37.40
2023-02-23T08:27:57.215Z,39.67
2023-02-23T08:31:01.269Z,38.37
2023-02-23T08:34:05.077Z,39.97
2023-02-23T08:37:09.292Z,39.43
2023-02-23T08:40:15.867Z,41.40
2023-02-23T08:43:21.002Z,39.73
2023-02-23T08:46:24.838Z,43.53
2023-02-23T08:49:28.640Z,38.27
2023-02-23T08:52:32.614Z,39.53
2023-02-23T08:55:37.324Z,38.30
2023-02-23T08:58:43.502Z,39.60
2023-02-23T09:01:47.327Z,41.00
2023-02-23T09:04:54.118Z,40.70
2023-02-23T09:07:57.937Z,42.17
2023-02-23T09:11:01.718Z,41.33
2023-02-23T09:14:07.093Z,41.63
2023-02-23T09:17:11.572Z,40.33
2023-02-23T09:20:18.864Z,40.20
2023-02-23T09:23:24.226Z,42.57
2023-02-23T09:26:29.426Z,39.33
2023-02-23T09:29:35.128Z,41.10
2023-02-23T09:32:39.035Z,41.60
2023-02-23T09:35:43.348Z,45.63
2023-02-23T09:38:50.484Z,43.13
2023-02-23T09:42:18.246Z,42.73
2023-02-23T09:45:38.691Z,43.93
2023-02-23T09:48:43.360Z,43.93
2023-02-23T09:51:55.448Z,42.07
2023-02-23T09:55:00.120Z,42.97
2023-02-23T09:58:15.008Z,41.40
2023-02-23T10:01:58.901Z,41.97
2023-02-23T10:05:09.780Z,38.13
2023-02-23T10:08:43.609Z,39.57
2023-02-23T10:11:57.358Z,36.97
2023-02-23T10:15:20.082Z,36.37
2023-02-23T10:18:46.647Z,33.83
2023-02-23T10:21:58.019Z,36.03
2023-02-23T10:25:07.629Z,31.07
2023-02-23T10:28:17.876Z,29.90
2023-02-23T10:31:34.755Z,32.00
2023-02-23T10:34:41.903Z,28.80
2023-02-23T10:37:47.369Z,26.27
2023-02-23T10:40:56.570Z,29.53
2023-02-23T10:44:15.441Z,30.07
2023-02-23T10:47:26.536Z,27.67
2023-02-23T10:50:33.896Z,29.53
2023-02-23T10:53:40.062Z,26.47
2023-02-23T10:56:48.512Z,27.53
2023-02-23T11:00:30.822Z,28.23
2023-02-23T11:03:40.561Z,30.30
2023-02-23T11:06:48.758Z,29.53
2023-02-23T11:09:52.956Z,26.70
2023-02-23T11:12:56.811Z,29.00
2023-02-23T11:16:10.456Z,30.80
2023-02-23T11:19:31.364Z,29.53
2023-02-23T11:22:42.398Z,29.17
2023-02-23T11:25:49.513Z,28.97
2023-02-23T11:28:57.779Z,30.73
2023-02-23T11:32:10.169Z,30.90
2023-02-23T11:35:29.491Z,31.63
2023-02-23T11:38:35.960Z,31.73
2023-02-23T11:41:39.899Z,29.27
2023-02-23T11:44:44.948Z,29.97
2023-02-23T11:47:52.070Z,29.60
2023-02-23T11:50:57.640Z,31.67
2023-02-23T11:54:05.941Z,31.17
2023-02-23T11:57:10.034Z,31.03
2023-02-23T12:00:25.464Z,30.40
2023-02-23T12:03:34.766Z,36.60
2023-02-23T12:06:41.374Z,40.10
2023-02-23T12:09:49.892Z,48.60
2023-02-23T12:13:07.529Z,42.53
2023-02-23T12:16:20.630Z,42.20
2023-02-23T12:19:33.080Z,46.83
2023-02-23T12:22:44.776Z,47.57
2023-02-23T12:25:56.221Z,43.60
2023-02-23T12:29:07.400Z,45.53
2023-02-23T12:32:20.302Z,44.53
2023-02-23T12:35:32.563Z,45.13
2023-02-23T12:38:52.082Z,47.70
2023-02-23T12:42:09.367Z,46.50
2023-02-23T12:45:25.771Z,48.13
2023-02-23T12:48:40.129Z,44.80
2023-02-23T12:51:52.955Z,44.87
2023-02-23T12:54:57.795Z,41.10
2023-02-23T12:58:15.977Z,37.70
2023-02-23T13:01:28.485Z,38.30
2023-02-23T13:05:13.178Z,38.10
2023-02-23T13:08:31.974Z,34.83
2023-02-23T13:11:59.877Z,34.63
2023-02-23T13:15:27.129Z,31.87
2023-02-23T13:18:38.672Z,32.40
2023-02-23T13:21:50.613Z,31.97
2023-02-23T13:25:00.000Z,31.23
2023-02-23T13:28:05.590Z,28.87
2023-02-23T13:31:23.760Z,29.17
2023-02-23T13:34:32.615Z,25.83
2023-02-23T13:37:48.048Z,27.80
2023-02-23T13:41:06.320Z,26.80
2023-02-23T13:44:26.606Z,26.47
2023-02-23T13:47:45.651Z,25.00
2023-02-23T13:51:01.237Z,26.57
2023-02-23T13:54:24.402Z,26.80
2023-02-23T13:57:30.162Z,27.63
2023-02-23T14:00:35.308Z,26.23
2023-02-23T14:03:54.786Z,25.63
2023-02-23T14:07:06.803Z,24.50
2023-02-23T14:10:21.430Z,25.33
2023-02-23T14:13:30.361Z,23.03
2023-02-23T14:16:34.436Z,23.73
2023-02-23T14:19:43.541Z,22.03
2023-02-23T14:23:30.265Z,21.43
2023-02-23T14:26:47.804Z,21.77
2023-02-23T14:30:27.314Z,23.37
2023-02-23T14:33:51.918Z,22.00
2023-02-23T14:36:57.176Z,21.20
2023-02-23T14:40:14.407Z,21.57
2023-02-23T14:43:44.092Z,22.23
2023-02-23T14:46:59.099Z,21.40
2023-02-23T14:50:04.035Z,20.83
2023-02-23T14:53:19.837Z,21.50
2023-02-23T14:56:35.503Z,21.73
2023-02-23T14:59:52.418Z,21.67
2023-02-23T15:03:00.406Z,22.20
2023-02-23T15:06:04.442Z,21.40
2023-02-23T15:09:19.478Z,20.83
2023-02-23T15:12:28.651Z,20.43
2023-02-23T15:15:49.875Z,20.20
2023-02-23T15:18:54.397Z,22.40
2023-02-23T15:22:01.702Z,20.60
2023-02-23T15:25:17.669Z,21.63
2023-02-23T15:28:29.664Z,22.40
2023-02-23T15:31:34.943Z,23.77
2023-02-23T15:34:39.027Z,20.60
2023-02-23T15:37:55.407Z,21.27
2023-02-23T15:41:23.240Z,18.80
2023-02-23T15:44:43.795Z,17.77
2023-02-23T15:47:48.781Z,15.93
2023-02-23T15:50:57.808Z,14.87
2023-02-23T15:54:06.825Z,16.23
2023-02-23T15:57:22.976Z,17.03
2023-02-23T16:00:38.094Z,13.33
2023-02-23T16:03:48.142Z,9.57
2023-02-23T16:06:55.498Z,9.10
2023-02-23T16:10:19.573Z,7.70
2023-02-23T16:13:27.393Z,8.07
2023-02-23T16:16:36.318Z,8.80
2023-02-23T16:19:42.094Z,8.50
2023-02-23T16:22:54.932Z,10.50
2023-02-23T16:26:06.787Z,8.33
2023-02-23T16:29:20.335Z,8.80
2023-02-23T16:32:24.964Z,6.77
2023-02-23T16:35:41.069Z,8.40
2023-02-23T16:38:59.136Z,7.23
2023-02-23T16:42:03.133Z,7.70
2023-02-23T16:45:17.278Z,5.87
2023-02-23T16:48:21.263Z,4.93
2023-02-23T16:51:25.058Z,6.40
2023-02-23T16:54:29.446Z,6.70
2023-02-23T16:57:42.011Z,4.20
2023-02-23T17:00:48.079Z,5.00
2023-02-23T17:03:54.092Z,4.47
2023-02-23T17:06:57.942Z,5.10
2023-02-23T17:10:01.743Z,4.83
2023-02-23T17:13:08.823Z,6.27
2023-02-23T17:16:15.451Z,4.40
2023-02-23T17:19:20.300Z,3.87
2023-02-23T17:22:24.104Z,4.27
2023-02-23T17:25:29.075Z,4.77
2023-02-23T17:28:32.949Z,4.50
2023-02-23T17:31:40.461Z,6.17
2023-02-23T17:34:44.345Z,4.30
2023-02-23T17:37:48.682Z,6.00
2023-02-23T17:40:52.405Z,4.50
2023-02-23T17:43:56.548Z,4.07
2023-02-23T17:47:01.768Z,4.50
2023-02-23T17:50:06.353Z,4.73
2023-02-23T17:53:10.173Z,3.90
2023-02-23T17:56:14.051Z,3.73
2023-02-23T17:59:17.907Z,5.43
2023-02-23T18:02:24.201Z,4.63
2023-02-23T18:05:28.211Z,3.67
2023-02-23T18:08:58.159Z,3.73
2023-02-23T18:12:03.410Z,4.93
2023-02-23T18:15:08.911Z,5.03
2023-02-23T18:18:14.192Z,5.60
2023-02-23T18:21:21.170Z,4.37
2023-02-23T18:24:25.202Z,5.07
2023-02-23T18:27:29.010Z,4.23
2023-02-23T18:30:32.936Z,4.50
2023-02-23T18:33:40.050Z,4.63
2023-02-23T18:36:44.276Z,9.50
2023-02-23T18:39:52.517Z,4.90
2023-02-23T18:42:58.299Z,5.53
2023-02-23T18:46:05.913Z,3.60
2023-02-23T18:49:16.061Z,6.13
2023-02-23T18:52:20.242Z,5.97
2023-02-23T18:55:24.997Z,4.87
2023-02-23T18:58:28.501Z,5.17
2023-02-23T19:01:34.684Z,4.43
2023-02-23T19:04:40.186Z,4.40
2023-02-23T19:07:44.348Z,4.57
2023-02-23T19:10:48.510Z,7.40
2023-02-23T19:13:53.069Z,5.83
2023-02-23T19:16:56.541Z,4.70
2023-02-23T19:20:01.822Z,4.50
2023-02-23T19:23:06.290Z,4.00
2023-02-23T19:26:09.798Z,4.47
2023-02-23T19:29:13.313Z,4.27
2023-02-23T19:32:18.049Z,3.00
2023-02-23T19:35:23.061Z,3.20
2023-02-23T19:38:27.528Z,3.77
2023-02-23T19:41:30.986Z,5.07
2023-02-23T19:44:34.774Z,3.20
2023-02-23T19:47:38.372Z,2.90
2023-02-23T19:50:49.571Z,4.20
2023-02-23T19:53:55.369Z,3.47
2023-02-23T19:56:58.967Z,3.03
2023-02-23T20:00:02.651Z,4.57
2023-02-23T20:03:07.359Z,3.53
2023-02-23T20:06:14.518Z,4.30
2023-02-23T20:09:18.251Z,3.20
2023-02-23T20:12:21.977Z,3.93
2023-02-23T20:15:42.774Z,2.93
2023-02-23T20:18:47.047Z,3.90
2023-02-23T20:21:52.376Z,4.40
2023-02-23T20:24:56.929Z,4.67
2023-02-23T20:28:00.514Z,5.20
2023-02-23T20:31:05.616Z,5.07
2023-02-23T20:34:12.094Z,4.07
2023-02-23T20:37:17.129Z,3.83
2023-02-23T20:40:23.061Z,3.77
2023-02-23T20:43:26.537Z,3.47
2023-02-23T20:46:31.005Z,4.07
2023-02-23T20:49:34.616Z,3.93
2023-02-23T20:52:40.516Z,3.23
2023-02-23T20:55:43.992Z,3.60
2023-02-23T20:58:48.666Z,3.47
2023-02-23T21:01:52.123Z,3.07
2023-02-23T21:04:55.826Z,3.63
2023-02-23T21:08:03.037Z,3.57
2023-02-23T21:11:07.909Z,4.00
2023-02-23T21:14:12.019Z,3.87
2023-02-23T21:17:15.558Z,4.10
2023-02-23T21:20:21.116Z,3.87
2023-02-23T21:23:26.768Z,4.03
2023-02-23T21:26:30.569Z,3.37
2023-02-23T21:29:34.108Z,3.70
2023-02-23T21:32:42.177Z,3.30
2023-02-23T21:35:45.839Z,3.43
2023-02-23T21:38:51.359Z,3.17
2023-02-23T21:41:54.930Z,3.33
2023-02-23T21:44:58.423Z,2.50
2023-02-23T21:48:04.075Z,3.60
2023-02-23T21:51:11.453Z,3.73
2023-02-23T21:54:16.602Z,3.10
2023-02-23T21:57:22.710Z,2.63
2023-02-23T22:00:28.075Z,3.83
2023-02-23T22:03:31.541Z,3.43
2023-02-23T22:06:40.263Z,3.40
2023-02-23T22:09:45.539Z,3.50
2023-02-23T22:12:50.671Z,2.97
2023-02-23T22:15:59.988Z,2.97
2023-02-23T22:19:05.074Z,3.23
2023-02-23T22:22:08.537Z,3.17
2023-02-23T22:25:13.559Z,2.43
2023-02-23T22:28:16.987Z,2.80
2023-02-23T22:31:21.012Z,3.40
2023-02-23T22:34:24.678Z,3.10
2023-02-23T22:37:30.021Z,2.87
2023-02-23T22:40:35.859Z,3.37
2023-02-23T22:43:40.290Z,3.00
2023-02-23T22:46:46.524Z,2.67
2023-02-23T22:49:51.014Z,2.73
2023-02-23T22:52:54.452Z,2.93
2023-02-23T22:55:59.694Z,3.10
2023-02-23T22:59:06.222Z,3.07
2023-02-23T23:02:11.798Z,3.63
2023-02-23T23:05:16.240Z,2.40
2023-02-23T23:08:19.731Z,2.20
2023-02-23T23:11:28.390Z,2.50
2023-02-23T23:14:32.685Z,2.93
2023-02-23T23:17:36.133Z,2.37
2023-02-23T23:20:39.637Z,2.50
2023-02-23T23:23:46.125Z,2.17
2023-02-23T23:26:55.540Z,2.40
2023-02-23T23:29:59.116Z,2.40
2023-02-23T23:33:03.444Z,2.10
2023-02-23T23:36:08.298Z,2.10
2023-02-23T23:39:13.261Z,2.07
2023-02-23T23:42:18.134Z,1.90
2023-02-23T23:45:25.223Z,2.43
2023-02-23T23:48:29.651Z,1.90
2023-02-23T23:51:38.797Z,1.83
2023-02-23T23:54:42.886Z,1.90
2023-02-23T23:57:47.964Z,2.87
